sensor_id;sensor_type;location;lat;lon;timestamp;temperature;humidity
79467;SHT30;68933;49.726;9.226;2023-05-15T00:01:11;14.5;73
79467;SHT30;68933;49.726;9.226;2023-05-15T00:03:24;14.5;73
79467;SHT30;68933;49.726;9.226;2023-05-15T00:05:37;14.5;73
79467;SHT30;68933;49.726;9.226;2023-05-15T00:07:50;14.5;73
79467;SHT30;68933;49.726;9.226;2023-05-15T00:10:03;14.4;74
79467;SHT30;68933;49.726;9.226;2023-05-15T00:12:16;14.4;74
79467;SHT30;68933;49.726;9.226;2023-05-15T00:14:29;14.3;74
79467;SHT30;68933;49.726;9.226;2023-05-15T00:16:42;14.3;74
79467;SHT30;68933;49.726;9.226;2023-05-15T00:18:55;14.3;74
79467;SHT30;68933;49.726;9.226;2023-05-15T00:21:08;14.3;74
79467;SHT30;68933;49.726;9.226;2023-05-15T00:23:21;14.2;74
79467;SHT30;68933;49.726;9.226;2023-05-15T00:25:34;14.2;74
79467;SHT30;68933;49.726;9.226;2023-05-15T00:27:47;14.2;74
79467;SHT30;68933;49.726;9.226;2023-05-15T00:30:00;14.2;74
79467;SHT30;68933;49.726;9.226;2023-05-15T00:32:13;14.2;74
79467;SHT30;68933;49.726;9.226;2023-05-15T00:34:26;14.1;74
79467;SHT30;68933;49.726;9.226;2023-05-15T00:36:39;14.1;74
79467;SHT30;68933;49.726;9.226;2023-05-15T00:38:52;14.1;74
79467;SHT30;68933;49.726;9.226;2023-05-15T00:41:05;14.1;74
79467;SHT30;68933;49.726;9.226;2023-05-15T00:43:18;14;76
79467;SHT30;68933;49.726;9.226;2023-05-15T00:45:31;14;76
79467;SHT30;68933;49.726;9.226;2023-05-15T00:47:44;14;76
79467;SHT30;68933;49.726;9.226;2023-05-15T00:49:57;14;76
79467;SHT30;68933;49.726;9.226;2023-05-15T00:52:10;14;76
79467;SHT30;68933;49.726;9.226;2023-05-15T00:54:23;14;76
79467;SHT30;68933;49.726;9.226;2023-05-15T00:56:36;14;76
79467;SHT30;68933;49.726;9.226;2023-05-15T00:58:49;13.9;76
79467;SHT30;68933;49.726;9.226;2023-05-15T01:01:02;13.9;76
79467;SHT30;68933;49.726;9.226;2023-05-15T01:03:15;13.9;76
79467;SHT30;68933;49.726;9.226;2023-05-15T01:05:28;13.9;76
79467;SHT30;68933;49.726;9.226;2023-05-15T01:07:44;13.9;76
79467;SHT30;68933;49.726;9.226;2023-05-15T01:09:54;13.9;76
79467;SHT30;68933;49.726;9.226;2023-05-15T01:12:07;13.8;76
79467;SHT30;68933;49.726;9.226;2023-05-15T01:14:20;13.8;76
79467;SHT30;68933;49.726;9.226;2023-05-15T01:16:33;13.8;76
79467;SHT30;68933;49.726;9.226;2023-05-15T01:18:46;13.8;76
79467;SHT30;68933;49.726;9.226;2023-05-15T01:21:05;13.8;76
79467;SHT30;68933;49.726;9.226;2023-05-15T01:23:15;13.7;76
79467;SHT30;68933;49.726;9.226;2023-05-15T01:26:04;13.7;76
79467;SHT30;68933;49.726;9.226;2023-05-15T01:27:38;13.6;76
79467;SHT30;68933;49.726;9.226;2023-05-15T01:29:54;13.6;76
79467;SHT30;68933;49.726;9.226;2023-05-15T01:32:05;13.6;76
79467;SHT30;68933;49.726;9.226;2023-05-15T01:34:17;13.6;76
79467;SHT30;68933;49.726;9.226;2023-05-15T01:36:32;13.6;76
79467;SHT30;68933;49.726;9.226;2023-05-15T01:38:43;13.5;76
79467;SHT30;68933;49.726;9.226;2023-05-15T01:40:58;13.5;76
79467;SHT30;68933;49.726;9.226;2023-05-15T01:43:10;13.5;76
79467;SHT30;68933;49.726;9.226;2023-05-15T01:45:23;13.5;76
79467;SHT30;68933;49.726;9.226;2023-05-15T01:47:38;13.5;76
79467;SHT30;68933;49.726;9.226;2023-05-15T01:49:48;13.4;77
79467;SHT30;68933;49.726;9.226;2023-05-15T01:52:09;13.4;77
79467;SHT30;68933;49.726;9.226;2023-05-15T01:54:14;13.4;77
79467;SHT30;68933;49.726;9.226;2023-05-15T01:56:27;13.4;77
79467;SHT30;68933;49.726;9.226;2023-05-15T01:58:44;13.4;77
79467;SHT30;68933;49.726;9.226;2023-05-15T02:00:53;13.3;76
79467;SHT30;68933;49.726;9.226;2023-05-15T02:03:06;13.3;76
79467;SHT30;68933;49.726;9.226;2023-05-15T02:05:19;13.3;76
79467;SHT30;68933;49.726;9.226;2023-05-15T02:07:32;13.3;76
79467;SHT30;68933;49.726;9.226;2023-05-15T02:09:45;13.3;76
79467;SHT30;68933;49.726;9.226;2023-05-15T02:11:58;13.3;76
79467;SHT30;68933;49.726;9.226;2023-05-15T02:14:11;13.3;76
79467;SHT30;68933;49.726;9.226;2023-05-15T02:16:24;13.2;76
79467;SHT30;68933;49.726;9.226;2023-05-15T02:18:37;13.2;76
79467;SHT30;68933;49.726;9.226;2023-05-15T02:20:50;13.2;76
79467;SHT30;68933;49.726;9.226;2023-05-15T02:23:03;13.2;76
79467;SHT30;68933;49.726;9.226;2023-05-15T02:25:16;13.2;76
79467;SHT30;68933;49.726;9.226;2023-05-15T02:27:32;13.2;76
79467;SHT30;68933;49.726;9.226;2023-05-15T02:29:46;13.2;76
79467;SHT30;68933;49.726;9.226;2023-05-15T02:31:56;13.2;77
79467;SHT30;68933;49.726;9.226;2023-05-15T02:34:14;13.2;77
79467;SHT30;68933;49.726;9.226;2023-05-15T02:36:22;13.2;77
79467;SHT30;68933;49.726;9.226;2023-05-15T02:38:36;13.2;76
79467;SHT30;68933;49.726;9.226;2023-05-15T02:40:47;13.2;76
79467;SHT30;68933;49.726;9.226;2023-05-15T02:43:00;13.2;76
79467;SHT30;68933;49.726;9.226;2023-05-15T02:45:13;13.2;76
79467;SHT30;68933;49.726;9.226;2023-05-15T02:47:26;13.1;76
79467;SHT30;68933;49.726;9.226;2023-05-15T02:49:39;13.1;76
79467;SHT30;68933;49.726;9.226;2023-05-15T02:51:52;13.1;76
79467;SHT30;68933;49.726;9.226;2023-05-15T02:54:05;13.1;76
79467;SHT30;68933;49.726;9.226;2023-05-15T02:56:18;13.1;76
79467;SHT30;68933;49.726;9.226;2023-05-15T02:58:31;13;76
79467;SHT30;68933;49.726;9.226;2023-05-15T03:00:44;13;76
79467;SHT30;68933;49.726;9.226;2023-05-15T03:02:57;12.9;76
79467;SHT30;68933;49.726;9.226;2023-05-15T03:05:10;12.9;76
79467;SHT30;68933;49.726;9.226;2023-05-15T03:07:23;12.9;76
79467;SHT30;68933;49.726;9.226;2023-05-15T03:09:36;12.9;76
79467;SHT30;68933;49.726;9.226;2023-05-15T03:11:49;12.9;76
79467;SHT30;68933;49.726;9.226;2023-05-15T03:14:02;12.9;76
79467;SHT30;68933;49.726;9.226;2023-05-15T03:16:15;12.9;76
79467;SHT30;68933;49.726;9.226;2023-05-15T03:18:28;12.9;76
79467;SHT30;68933;49.726;9.226;2023-05-15T03:20:41;12.9;76
79467;SHT30;68933;49.726;9.226;2023-05-15T03:22:54;12.9;74
79467;SHT30;68933;49.726;9.226;2023-05-15T03:25:08;12.9;74
79467;SHT30;68933;49.726;9.226;2023-05-15T03:27:20;12.9;74
79467;SHT30;68933;49.726;9.226;2023-05-15T03:29:33;12.8;74
79467;SHT30;68933;49.726;9.226;2023-05-15T03:31:46;12.8;74
79467;SHT30;68933;49.726;9.226;2023-05-15T03:33:59;12.8;74
79467;SHT30;68933;49.726;9.226;2023-05-15T03:36:12;12.8;74
79467;SHT30;68933;49.726;9.226;2023-05-15T03:38:25;12.7;76
79467;SHT30;68933;49.726;9.226;2023-05-15T03:40:38;12.7;76
79467;SHT30;68933;49.726;9.226;2023-05-15T03:42:51;12.7;76
79467;SHT30;68933;49.726;9.226;2023-05-15T03:45:05;12.7;74
79467;SHT30;68933;49.726;9.226;2023-05-15T03:47:17;12.7;74
79467;SHT30;68933;49.726;9.226;2023-05-15T03:49:30;12.6;74
79467;SHT30;68933;49.726;9.226;2023-05-15T03:51:43;12.6;74
79467;SHT30;68933;49.726;9.226;2023-05-15T03:53:56;12.6;75
79467;SHT30;68933;49.726;9.226;2023-05-15T03:56:09;12.6;75
79467;SHT30;68933;49.726;9.226;2023-05-15T03:58:22;12.6;75
79467;SHT30;68933;49.726;9.226;2023-05-15T04:00:35;12.6;75
79467;SHT30;68933;49.726;9.226;2023-05-15T04:02:48;12.6;75
79467;SHT30;68933;49.726;9.226;2023-05-15T04:05:01;12.6;75
79467;SHT30;68933;49.726;9.226;2023-05-15T04:07:14;12.6;75
79467;SHT30;68933;49.726;9.226;2023-05-15T04:09:27;12.5;75
79467;SHT30;68933;49.726;9.226;2023-05-15T04:11:40;12.5;75
79467;SHT30;68933;49.726;9.226;2023-05-15T04:13:53;12.5;75
79467;SHT30;68933;49.726;9.226;2023-05-15T04:16:06;12.5;75
79467;SHT30;68933;49.726;9.226;2023-05-15T04:18:19;12.5;75
79467;SHT30;68933;49.726;9.226;2023-05-15T04:20:32;12.5;75
79467;SHT30;68933;49.726;9.226;2023-05-15T04:22:45;12.5;75
79467;SHT30;68933;49.726;9.226;2023-05-15T04:24:58;12.5;75
79467;SHT30;68933;49.726;9.226;2023-05-15T04:27:11;12.5;75
79467;SHT30;68933;49.726;9.226;2023-05-15T04:29:24;12.5;75
79467;SHT30;68933;49.726;9.226;2023-05-15T04:31:37;12.5;75
79467;SHT30;68933;49.726;9.226;2023-05-15T04:33:50;12.5;75
79467;SHT30;68933;49.726;9.226;2023-05-15T04:36:03;12.5;75
79467;SHT30;68933;49.726;9.226;2023-05-15T04:38:16;12.5;75
79467;SHT30;68933;49.726;9.226;2023-05-15T04:40:29;12.5;75
79467;SHT30;68933;49.726;9.226;2023-05-15T04:42:42;12.4;75
79467;SHT30;68933;49.726;9.226;2023-05-15T04:44:55;12.4;75
79467;SHT30;68933;49.726;9.226;2023-05-15T04:47:08;12.5;75
79467;SHT30;68933;49.726;9.226;2023-05-15T04:49:21;12.5;75
79467;SHT30;68933;49.726;9.226;2023-05-15T04:51:34;12.5;75
79467;SHT30;68933;49.726;9.226;2023-05-15T04:53:47;12.4;75
79467;SHT30;68933;49.726;9.226;2023-05-15T04:56:00;12.4;75
79467;SHT30;68933;49.726;9.226;2023-05-15T04:58:13;12.4;75
79467;SHT30;68933;49.726;9.226;2023-05-15T05:00:26;12.4;75
79467;SHT30;68933;49.726;9.226;2023-05-15T05:02:39;12.4;75
79467;SHT30;68933;49.726;9.226;2023-05-15T05:04:52;12.3;75
79467;SHT30;68933;49.726;9.226;2023-05-15T05:07:05;12.3;75
79467;SHT30;68933;49.726;9.226;2023-05-15T05:09:18;12.2;76
79467;SHT30;68933;49.726;9.226;2023-05-15T05:11:31;12.2;76
79467;SHT30;68933;49.726;9.226;2023-05-15T05:13:44;12.2;76
79467;SHT30;68933;49.726;9.226;2023-05-15T05:15:57;12.2;76
79467;SHT30;68933;49.726;9.226;2023-05-15T05:18:10;12.2;76
79467;SHT30;68933;49.726;9.226;2023-05-15T05:20:23;12.2;76
79467;SHT30;68933;49.726;9.226;2023-05-15T05:22:36;12.2;76
79467;SHT30;68933;49.726;9.226;2023-05-15T05:24:49;12.3;76
79467;SHT30;68933;49.726;9.226;2023-05-15T05:27:02;12.3;76
79467;SHT30;68933;49.726;9.226;2023-05-15T05:29:15;12.3;76
79467;SHT30;68933;49.726;9.226;2023-05-15T05:31:28;12.3;77
79467;SHT30;68933;49.726;9.226;2023-05-15T05:33:41;12.3;77
79467;SHT30;68933;49.726;9.226;2023-05-15T05:35:54;12.4;77
79467;SHT30;68933;49.726;9.226;2023-05-15T05:38:07;12.4;77
79467;SHT30;68933;49.726;9.226;2023-05-15T05:40:20;12.4;77
79467;SHT30;68933;49.726;9.226;2023-05-15T05:42:33;12.4;77
79467;SHT30;68933;49.726;9.226;2023-05-15T05:44:46;12.4;77
79467;SHT30;68933;49.726;9.226;2023-05-15T05:46:59;12.5;77
79467;SHT30;68933;49.726;9.226;2023-05-15T05:49:12;12.5;77
79467;SHT30;68933;49.726;9.226;2023-05-15T05:51:25;12.6;76
79467;SHT30;68933;49.726;9.226;2023-05-15T05:53:38;12.6;76
79467;SHT30;68933;49.726;9.226;2023-05-15T05:55:51;12.8;76
79467;SHT30;68933;49.726;9.226;2023-05-15T05:58:04;12.8;76
79467;SHT30;68933;49.726;9.226;2023-05-15T06:00:17;12.8;76
79467;SHT30;68933;49.726;9.226;2023-05-15T06:02:30;12.8;76
79467;SHT30;68933;49.726;9.226;2023-05-15T06:04:43;12.8;76
79467;SHT30;68933;49.726;9.226;2023-05-15T06:06:56;12.9;76
79467;SHT30;68933;49.726;9.226;2023-05-15T06:09:09;12.9;76
79467;SHT30;68933;49.726;9.226;2023-05-15T06:11:22;13;76
79467;SHT30;68933;49.726;9.226;2023-05-15T06:13:35;13;76
79467;SHT30;68933;49.726;9.226;2023-05-15T06:15:49;13;76
79467;SHT30;68933;49.726;9.226;2023-05-15T06:18:01;13.1;76
79467;SHT30;68933;49.726;9.226;2023-05-15T06:20:14;13.1;76
79467;SHT30;68933;49.726;9.226;2023-05-15T06:22:27;13.3;76
79467;SHT30;68933;49.726;9.226;2023-05-15T06:24:40;13.3;76
79467;SHT30;68933;49.726;9.226;2023-05-15T06:26:53;13.3;76
79467;SHT30;68933;49.726;9.226;2023-05-15T06:29:06;13.3;76
79467;SHT30;68933;49.726;9.226;2023-05-15T06:31:19;13.5;74
79467;SHT30;68933;49.726;9.226;2023-05-15T06:33:32;13.5;74
79467;SHT30;68933;49.726;9.226;2023-05-15T06:35:45;13.5;74
79467;SHT30;68933;49.726;9.226;2023-05-15T06:37:58;13.6;74
79467;SHT30;68933;49.726;9.226;2023-05-15T06:40:11;13.6;74
79467;SHT30;68933;49.726;9.226;2023-05-15T06:42:24;13.6;76
79467;SHT30;68933;49.726;9.226;2023-05-15T06:44:37;13.6;76
79467;SHT30;68933;49.726;9.226;2023-05-15T06:46:50;13.7;74
79467;SHT30;68933;49.726;9.226;2023-05-15T06:49:03;13.7;74
79467;SHT30;68933;49.726;9.226;2023-05-15T06:51:16;13.7;74
79467;SHT30;68933;49.726;9.226;2023-05-15T06:53:29;13.7;74
79467;SHT30;68933;49.726;9.226;2023-05-15T06:55:42;13.8;74
79467;SHT30;68933;49.726;9.226;2023-05-15T06:57:55;13.8;74
79467;SHT30;68933;49.726;9.226;2023-05-15T07:00:08;13.8;74
79467;SHT30;68933;49.726;9.226;2023-05-15T07:02:21;13.8;74
79467;SHT30;68933;49.726;9.226;2023-05-15T07:04:34;13.8;74
79467;SHT30;68933;49.726;9.226;2023-05-15T07:06:47;13.8;74
79467;SHT30;68933;49.726;9.226;2023-05-15T07:09:00;13.8;74
79467;SHT30;68933;49.726;9.226;2023-05-15T07:11:13;13.9;74
79467;SHT30;68933;49.726;9.226;2023-05-15T07:13:26;13.9;74
79467;SHT30;68933;49.726;9.226;2023-05-15T07:15:39;14.1;74
79467;SHT30;68933;49.726;9.226;2023-05-15T07:17:52;14.1;74
79467;SHT30;68933;49.726;9.226;2023-05-15T07:20:05;14.1;74
79467;SHT30;68933;49.726;9.226;2023-05-15T07:22:18;14.2;74
79467;SHT30;68933;49.726;9.226;2023-05-15T07:24:31;14.2;74
79467;SHT30;68933;49.726;9.226;2023-05-15T07:26:44;14.4;73
79467;SHT30;68933;49.726;9.226;2023-05-15T07:28:57;14.4;73
79467;SHT30;68933;49.726;9.226;2023-05-15T07:31:10;14.6;73
79467;SHT30;68933;49.726;9.226;2023-05-15T07:33:23;14.6;73
79467;SHT30;68933;49.726;9.226;2023-05-15T07:35:36;14.7;73
79467;SHT30;68933;49.726;9.226;2023-05-15T07:37:49;14.7;73
79467;SHT30;68933;49.726;9.226;2023-05-15T07:40:02;14.7;73
79467;SHT30;68933;49.726;9.226;2023-05-15T07:42:15;15;72
79467;SHT30;68933;49.726;9.226;2023-05-15T07:44:28;15;72
79467;SHT30;68933;49.726;9.226;2023-05-15T07:46:41;15.1;71
79467;SHT30;68933;49.726;9.226;2023-05-15T07:48:54;15.1;71
79467;SHT30;68933;49.726;9.226;2023-05-15T07:51:07;15.1;71
79467;SHT30;68933;49.726;9.226;2023-05-15T07:53:20;15.3;71
79467;SHT30;68933;49.726;9.226;2023-05-15T07:55:33;15.3;71
79467;SHT30;68933;49.726;9.226;2023-05-15T07:57:46;15.5;71
79467;SHT30;68933;49.726;9.226;2023-05-15T07:59:59;15.5;71
79467;SHT30;68933;49.726;9.226;2023-05-15T08:02:12;15.5;71
79467;SHT30;68933;49.726;9.226;2023-05-15T08:04:25;15.6;71
79467;SHT30;68933;49.726;9.226;2023-05-15T08:06:38;15.6;71
79467;SHT30;68933;49.726;9.226;2023-05-15T08:08:51;15.9;70
79467;SHT30;68933;49.726;9.226;2023-05-15T08:11:04;15.9;70
79467;SHT30;68933;49.726;9.226;2023-05-15T08:13:17;16.2;69
79467;SHT30;68933;49.726;9.226;2023-05-15T08:15:30;16.2;69
79467;SHT30;68933;49.726;9.226;2023-05-15T08:17:43;16.2;69
79467;SHT30;68933;49.726;9.226;2023-05-15T08:19:56;16.4;69
79467;SHT30;68933;49.726;9.226;2023-05-15T08:22:09;16.4;69
79467;SHT30;68933;49.726;9.226;2023-05-15T08:24:22;16.6;69
79467;SHT30;68933;49.726;9.226;2023-05-15T08:26:35;16.6;69
79467;SHT30;68933;49.726;9.226;2023-05-15T08:28:48;16.6;69
79467;SHT30;68933;49.726;9.226;2023-05-15T08:31:01;16.8;67
79467;SHT30;68933;49.726;9.226;2023-05-15T08:33:14;16.8;67
79467;SHT30;68933;49.726;9.226;2023-05-15T08:35:27;17.1;67
79467;SHT30;68933;49.726;9.226;2023-05-15T08:37:40;17.1;67
79467;SHT30;68933;49.726;9.226;2023-05-15T08:39:53;17.5;66
79467;SHT30;68933;49.726;9.226;2023-05-15T08:42:07;17.5;66
79467;SHT30;68933;49.726;9.226;2023-05-15T08:44:19;17.5;66
79467;SHT30;68933;49.726;9.226;2023-05-15T08:46:32;17.6;66
79467;SHT30;68933;49.726;9.226;2023-05-15T08:48:45;17.6;66
79467;SHT30;68933;49.726;9.226;2023-05-15T08:50:58;18;65
79467;SHT30;68933;49.726;9.226;2023-05-15T08:53:11;18;65
79467;SHT30;68933;49.726;9.226;2023-05-15T08:55:24;18.4;63
79467;SHT30;68933;49.726;9.226;2023-05-15T08:57:37;18.4;63
79467;SHT30;68933;49.726;9.226;2023-05-15T08:59:50;18.4;63
79467;SHT30;68933;49.726;9.226;2023-05-15T09:02:03;18.6;63
79467;SHT30;68933;49.726;9.226;2023-05-15T09:04:16;18.6;63
79467;SHT30;68933;49.726;9.226;2023-05-15T09:06:29;19;62
79467;SHT30;68933;49.726;9.226;2023-05-15T09:08:42;19;62
79467;SHT30;68933;49.726;9.226;2023-05-15T09:10:55;19.2;62
79467;SHT30;68933;49.726;9.226;2023-05-15T09:13:08;19.2;62
79467;SHT30;68933;49.726;9.226;2023-05-15T09:15:23;19.5;59
79467;SHT30;68933;49.726;9.226;2023-05-15T09:17:34;19.5;59
79467;SHT30;68933;49.726;9.226;2023-05-15T09:19:47;19.5;59
79467;SHT30;68933;49.726;9.226;2023-05-15T09:22:12;19.9;57
79467;SHT30;68933;49.726;9.226;2023-05-15T09:24:15;19.9;57
79467;SHT30;68933;49.726;9.226;2023-05-15T09:26:26;20.1;55
79467;SHT30;68933;49.726;9.226;2023-05-15T09:28:39;20.1;55
79467;SHT30;68933;49.726;9.226;2023-05-15T09:30:56;20.3;54
79467;SHT30;68933;49.726;9.226;2023-05-15T09:33:05;20.3;54
79467;SHT30;68933;49.726;9.226;2023-05-15T09:35:34;20.5;54
79467;SHT30;68933;49.726;9.226;2023-05-15T09:37:31;20.5;54
79467;SHT30;68933;49.726;9.226;2023-05-15T09:39:44;20.5;54
79467;SHT30;68933;49.726;9.226;2023-05-15T09:42:04;20.7;51
79467;SHT30;68933;49.726;9.226;2023-05-15T09:44:16;20.7;51
79467;SHT30;68933;49.726;9.226;2023-05-15T09:46:23;20.8;51
79467;SHT30;68933;49.726;9.226;2023-05-15T09:48:36;20.8;51
79467;SHT30;68933;49.726;9.226;2023-05-15T09:50:49;21;49
79467;SHT30;68933;49.726;9.226;2023-05-15T09:53:02;21;49
79467;SHT30;68933;49.726;9.226;2023-05-15T09:55:15;21.2;47
79467;SHT30;68933;49.726;9.226;2023-05-15T09:57:28;21.2;47
79467;SHT30;68933;49.726;9.226;2023-05-15T09:59:43;21.2;47
79467;SHT30;68933;49.726;9.226;2023-05-15T10:01:54;21.4;47
79467;SHT30;68933;49.726;9.226;2023-05-15T10:04:07;21.4;47
79467;SHT30;68933;49.726;9.226;2023-05-15T10:06:20;21.5;46
79467;SHT30;68933;49.726;9.226;2023-05-15T10:08:33;21.5;46
79467;SHT30;68933;49.726;9.226;2023-05-15T10:10:46;21.6;46
79467;SHT30;68933;49.726;9.226;2023-05-15T10:12:59;21.6;46
79467;SHT30;68933;49.726;9.226;2023-05-15T10:15:12;21.9;46
79467;SHT30;68933;49.726;9.226;2023-05-15T10:17:25;21.9;46
79467;SHT30;68933;49.726;9.226;2023-05-15T10:19:39;21.9;46
79467;SHT30;68933;49.726;9.226;2023-05-15T10:21:51;22.2;45
79467;SHT30;68933;49.726;9.226;2023-05-15T10:24:05;22.2;45
79467;SHT30;68933;49.726;9.226;2023-05-15T10:26:19;22.3;45
79467;SHT30;68933;49.726;9.226;2023-05-15T10:28:30;22.3;45
79467;SHT30;68933;49.726;9.226;2023-05-15T10:30:43;22.6;45
79467;SHT30;68933;49.726;9.226;2023-05-15T10:32:56;22.6;45
79467;SHT30;68933;49.726;9.226;2023-05-15T10:35:09;22.7;43
79467;SHT30;68933;49.726;9.226;2023-05-15T10:37:22;22.7;43
79467;SHT30;68933;49.726;9.226;2023-05-15T10:39:35;23;42
79467;SHT30;68933;49.726;9.226;2023-05-15T10:41:49;23;42
79467;SHT30;68933;49.726;9.226;2023-05-15T10:44:01;23.4;43
79467;SHT30;68933;49.726;9.226;2023-05-15T10:46:14;23.4;43
79467;SHT30;68933;49.726;9.226;2023-05-15T10:48:27;23.4;43
79467;SHT30;68933;49.726;9.226;2023-05-15T10:50:40;23.6;41
79467;SHT30;68933;49.726;9.226;2023-05-15T10:52:53;23.6;41
79467;SHT30;68933;49.726;9.226;2023-05-15T10:55:07;23.6;41
79467;SHT30;68933;49.726;9.226;2023-05-15T10:57:19;23.8;41
79467;SHT30;68933;49.726;9.226;2023-05-15T10:59:32;23.8;41
79467;SHT30;68933;49.726;9.226;2023-05-15T11:01:45;23.9;39
79467;SHT30;68933;49.726;9.226;2023-05-15T11:04:06;23.9;39
79467;SHT30;68933;49.726;9.226;2023-05-15T11:06:11;24.2;38
79467;SHT30;68933;49.726;9.226;2023-05-15T11:08:24;24.2;38
79467;SHT30;68933;49.726;9.226;2023-05-15T11:10:37;24.2;38
79467;SHT30;68933;49.726;9.226;2023-05-15T11:12:54;24.3;38
79467;SHT30;68933;49.726;9.226;2023-05-15T11:15:19;24.3;38
79467;SHT30;68933;49.726;9.226;2023-05-15T11:17:16;24.4;38
79467;SHT30;68933;49.726;9.226;2023-05-15T11:19:31;24.4;38
79467;SHT30;68933;49.726;9.226;2023-05-15T11:21:44;24.7;38
79467;SHT30;68933;49.726;9.226;2023-05-15T11:24:01;24.7;38
79467;SHT30;68933;49.726;9.226;2023-05-15T11:26:08;24.7;38
79467;SHT30;68933;49.726;9.226;2023-05-15T11:28:21;25.1;37
79467;SHT30;68933;49.726;9.226;2023-05-15T11:30:35;25.1;37
79467;SHT30;68933;49.726;9.226;2023-05-15T11:32:48;25.1;37
79467;SHT30;68933;49.726;9.226;2023-05-15T11:35:00;25.1;37
79467;SHT30;68933;49.726;9.226;2023-05-15T11:37:16;25.2;37
79467;SHT30;68933;49.726;9.226;2023-05-15T11:39:26;25.2;37
79467;SHT30;68933;49.726;9.226;2023-05-15T11:41:39;25.2;37
79467;SHT30;68933;49.726;9.226;2023-05-15T11:43:52;24.7;38
79467;SHT30;68933;49.726;9.226;2023-05-15T11:46:06;24.7;38
79467;SHT30;68933;49.726;9.226;2023-05-15T11:48:18;24.5;38
79467;SHT30;68933;49.726;9.226;2023-05-15T11:50:31;24.5;38
79467;SHT30;68933;49.726;9.226;2023-05-15T11:52:44;24.2;38
79467;SHT30;68933;49.726;9.226;2023-05-15T11:54:57;24.2;38
79467;SHT30;68933;49.726;9.226;2023-05-15T11:57:10;24.2;38
79467;SHT30;68933;49.726;9.226;2023-05-15T11:59:25;24.2;38
79467;SHT30;68933;49.726;9.226;2023-05-15T12:01:37;24;38
79467;SHT30;68933;49.726;9.226;2023-05-15T12:03:49;24;38
79467;SHT30;68933;49.726;9.226;2023-05-15T12:06:02;24;38
79467;SHT30;68933;49.726;9.226;2023-05-15T12:08:15;23.6;39
79467;SHT30;68933;49.726;9.226;2023-05-15T12:10:28;23.6;39
79467;SHT30;68933;49.726;9.226;2023-05-15T12:12:41;23.5;39
79467;SHT30;68933;49.726;9.226;2023-05-15T12:14:56;23.5;39
79467;SHT30;68933;49.726;9.226;2023-05-15T12:17:07;23.5;39
79467;SHT30;68933;49.726;9.226;2023-05-15T12:19:22;23.5;39
79467;SHT30;68933;49.726;9.226;2023-05-15T12:21:33;23.5;39
79467;SHT30;68933;49.726;9.226;2023-05-15T12:23:49;23.5;39
79467;SHT30;68933;49.726;9.226;2023-05-15T12:26:00;23.2;41
79467;SHT30;68933;49.726;9.226;2023-05-15T12:28:12;23.2;41
79467;SHT30;68933;49.726;9.226;2023-05-15T12:30:25;23.2;41
79467;SHT30;68933;49.726;9.226;2023-05-15T12:32:38;22.8;46
79467;SHT30;68933;49.726;9.226;2023-05-15T12:34:51;22.8;46
79467;SHT30;68933;49.726;9.226;2023-05-15T12:37:04;22.4;47
79467;SHT30;68933;49.726;9.226;2023-05-15T12:39:17;22.4;47
79467;SHT30;68933;49.726;9.226;2023-05-15T12:41:30;22;47
79467;SHT30;68933;49.726;9.226;2023-05-15T12:43:43;22;47
79467;SHT30;68933;49.726;9.226;2023-05-15T12:45:56;22;47
79467;SHT30;68933;49.726;9.226;2023-05-15T12:48:12;21.6;46
79467;SHT30;68933;49.726;9.226;2023-05-15T12:50:22;21.6;46
79467;SHT30;68933;49.726;9.226;2023-05-15T12:52:35;21.7;47
79467;SHT30;68933;49.726;9.226;2023-05-15T12:54:49;21.7;47
79467;SHT30;68933;49.726;9.226;2023-05-15T12:57:01;22;47
79467;SHT30;68933;49.726;9.226;2023-05-15T12:59:14;22;47
79467;SHT30;68933;49.726;9.226;2023-05-15T13:01:27;22;47
79467;SHT30;68933;49.726;9.226;2023-05-15T13:03:40;22.6;45
79467;SHT30;68933;49.726;9.226;2023-05-15T13:05:53;22.6;45
79467;SHT30;68933;49.726;9.226;2023-05-15T13:08:06;23.2;41
79467;SHT30;68933;49.726;9.226;2023-05-15T13:10:19;23.2;41
79467;SHT30;68933;49.726;9.226;2023-05-15T13:12:35;23.2;41
79467;SHT30;68933;49.726;9.226;2023-05-15T13:14:45;23.9;39
79467;SHT30;68933;49.726;9.226;2023-05-15T13:16:58;23.9;39
79467;SHT30;68933;49.726;9.226;2023-05-15T13:19:11;24.3;38
79467;SHT30;68933;49.726;9.226;2023-05-15T13:21:24;24.3;38
79467;SHT30;68933;49.726;9.226;2023-05-15T13:23:37;24.3;38
79467;SHT30;68933;49.726;9.226;2023-05-15T13:25:50;24.4;37
79467;SHT30;68933;49.726;9.226;2023-05-15T13:28:04;24.4;37
79467;SHT30;68933;49.726;9.226;2023-05-15T13:30:16;24.7;37
79467;SHT30;68933;49.726;9.226;2023-05-15T13:32:29;24.7;37
79467;SHT30;68933;49.726;9.226;2023-05-15T13:34:42;24.9;37
79467;SHT30;68933;49.726;9.226;2023-05-15T13:36:55;24.9;37
79467;SHT30;68933;49.726;9.226;2023-05-15T13:39:08;24.9;37
79467;SHT30;68933;49.726;9.226;2023-05-15T13:41:21;25.1;38
79467;SHT30;68933;49.726;9.226;2023-05-15T13:43:34;25.1;38
79467;SHT30;68933;49.726;9.226;2023-05-15T13:45:47;24.9;38
79467;SHT30;68933;49.726;9.226;2023-05-15T13:48:00;24.9;38
79467;SHT30;68933;49.726;9.226;2023-05-15T13:50:14;24.9;38
79467;SHT30;68933;49.726;9.226;2023-05-15T13:52:26;24.7;38
79467;SHT30;68933;49.726;9.226;2023-05-15T13:54:39;24.7;38
79467;SHT30;68933;49.726;9.226;2023-05-15T13:56:52;24.5;38
79467;SHT30;68933;49.726;9.226;2023-05-15T13:59:05;24.5;38
79467;SHT30;68933;49.726;9.226;2023-05-15T14:01:18;24.3;38
79467;SHT30;68933;49.726;9.226;2023-05-15T14:03:31;24.3;38
79467;SHT30;68933;49.726;9.226;2023-05-15T14:05:44;24.3;38
79467;SHT30;68933;49.726;9.226;2023-05-15T14:07:57;23.6;39
79467;SHT30;68933;49.726;9.226;2023-05-15T14:10:10;23.6;39
79467;SHT30;68933;49.726;9.226;2023-05-15T14:12:23;23.4;41
79467;SHT30;68933;49.726;9.226;2023-05-15T14:14:36;23.4;41
79467;SHT30;68933;49.726;9.226;2023-05-15T14:16:49;23.5;42
79467;SHT30;68933;49.726;9.226;2023-05-15T14:19:02;23.5;42
79467;SHT30;68933;49.726;9.226;2023-05-15T14:21:15;23.7;39
79467;SHT30;68933;49.726;9.226;2023-05-15T14:23:28;23.7;39
79467;SHT30;68933;49.726;9.226;2023-05-15T14:25:41;23.7;39
79467;SHT30;68933;49.726;9.226;2023-05-15T14:27:54;23.6;41
79467;SHT30;68933;49.726;9.226;2023-05-15T14:30:07;23.6;41
79467;SHT30;68933;49.726;9.226;2023-05-15T14:32:20;23.6;41
79467;SHT30;68933;49.726;9.226;2023-05-15T14:34:33;23.6;41
79467;SHT30;68933;49.726;9.226;2023-05-15T14:36:46;23.2;41
79467;SHT30;68933;49.726;9.226;2023-05-15T14:38:59;23.2;41
79467;SHT30;68933;49.726;9.226;2023-05-15T14:41:12;23.2;41
79467;SHT30;68933;49.726;9.226;2023-05-15T14:43:25;22.9;41
79467;SHT30;68933;49.726;9.226;2023-05-15T14:45:38;22.9;41
79467;SHT30;68933;49.726;9.226;2023-05-15T14:47:51;22.8;41
79467;SHT30;68933;49.726;9.226;2023-05-15T14:50:04;22.8;41
79467;SHT30;68933;49.726;9.226;2023-05-15T14:52:17;22.6;42
79467;SHT30;68933;49.726;9.226;2023-05-15T14:54:30;22.6;42
79467;SHT30;68933;49.726;9.226;2023-05-15T14:56:43;22.5;41
79467;SHT30;68933;49.726;9.226;2023-05-15T14:58:56;22.5;41